createdAt,value
2019-01-30T00:01:38.909Z,1.91
2019-01-30T00:04:08.565Z,1.86
2019-01-30T00:06:38.231Z,1.75
2019-01-30T00:09:10.367Z,1.62
2019-01-30T00:11:42.943Z,1.95
2019-01-30T00:14:13.513Z,1.91
2019-01-30T00:16:46.894Z,1.82
2019-01-30T00:19:16.867Z,1.83
2019-01-30T00:21:47.135Z,1.99
2019-01-30T00:24:16.633Z,1.98
2019-01-30T00:26:46.382Z,1.87
2019-01-30T00:29:15.859Z,1.75
2019-01-30T00:31:45.427Z,1.73
2019-01-30T00:34:14.916Z,1.55
2019-01-30T00:36:44.503Z,1.54
2019-01-30T00:39:14.518Z,1.58
2019-01-30T00:41:44.167Z,1.24
2019-01-30T00:44:13.673Z,1.25
2019-01-30T00:46:43.263Z,1.14
2019-01-30T00:49:12.839Z,1.13
2019-01-30T00:51:42.797Z,1.18
2019-01-30T00:54:12.337Z,1.24
2019-01-30T00:56:41.938Z,1.35
2019-01-30T00:59:11.478Z,1.48
2019-01-30T01:01:41.284Z,1.37
2019-01-30T01:04:10.860Z,1.47
2019-01-30T01:06:40.448Z,1.58
2019-01-30T01:09:10.934Z,1.46
2019-01-30T01:11:40.676Z,1.43
2019-01-30T01:14:10.239Z,1.27
2019-01-30T01:16:39.874Z,1.54
2019-01-30T01:19:09.512Z,1.57
2019-01-30T01:21:39.011Z,1.35
2019-01-30T01:24:08.716Z,1.33
2019-01-30T01:26:38.343Z,1.53
2019-01-30T01:29:17.009Z,1.52
2019-01-30T01:31:46.591Z,1.46
2019-01-30T01:34:16.090Z,1.44
2019-01-30T01:36:45.610Z,1.53
2019-01-30T01:39:15.106Z,1.66
2019-01-30T01:41:44.688Z,1.71
2019-01-30T01:44:14.280Z,1.72
2019-01-30T01:46:43.779Z,1.62
2019-01-30T01:49:15.438Z,1.60
2019-01-30T01:51:45.689Z,1.51
2019-01-30T01:54:15.205Z,1.69
2019-01-30T01:56:44.708Z,1.73
2019-01-30T01:59:14.260Z,1.76
2019-01-30T02:01:43.766Z,1.52
2019-01-30T02:04:13.269Z,1.62
2019-01-30T02:06:45.390Z,1.49
2019-01-30T02:09:14.926Z,1.21
2019-01-30T02:11:44.524Z,1.12
2019-01-30T02:14:14.032Z,0.86
2019-01-30T02:16:43.728Z,1.04
2019-01-30T02:19:13.227Z,0.88
2019-01-30T02:21:42.773Z,0.86
2019-01-30T02:24:12.329Z,1.19
2019-01-30T02:26:41.906Z,1.10
2019-01-30T02:29:11.764Z,1.23
2019-01-30T02:31:41.320Z,1.13
2019-01-30T02:34:10.902Z,1.10
2019-01-30T02:36:53.744Z,0.95
2019-01-30T02:39:23.320Z,1.13
2019-01-30T02:41:53.240Z,1.29
2019-01-30T02:44:23.232Z,1.41
2019-01-30T02:46:52.798Z,1.48
2019-01-30T02:49:22.448Z,1.50
2019-01-30T02:51:52.339Z,1.63
2019-01-30T02:54:21.904Z,1.39
2019-01-30T02:56:51.436Z,1.38
2019-01-30T02:59:20.975Z,1.52
2019-01-30T03:01:52.524Z,1.60
2019-01-30T03:04:26.388Z,1.57
2019-01-30T03:06:55.930Z,1.58
2019-01-30T03:09:25.536Z,1.70
2019-01-30T03:11:55.110Z,1.77
2019-01-30T03:14:24.674Z,1.73
2019-01-30T03:16:54.252Z,1.88
2019-01-30T03:19:23.925Z,1.75
2019-01-30T03:21:53.415Z,1.81
2019-01-30T03:24:22.952Z,1.68
2019-01-30T03:26:53.798Z,1.78
2019-01-30T03:29:23.376Z,1.81
2019-01-30T03:31:53.294Z,1.94
2019-01-30T03:34:22.962Z,1.82
2019-01-30T03:36:52.714Z,1.67
2019-01-30T03:39:22.427Z,1.80
2019-01-30T03:41:52.174Z,1.63
2019-01-30T03:44:21.764Z,1.60
2019-01-30T03:46:51.242Z,1.59
2019-01-30T03:49:21.228Z,1.37
2019-01-30T03:51:50.811Z,1.24
2019-01-30T03:54:20.400Z,1.23
2019-01-30T03:56:50.052Z,1.20
2019-01-30T03:59:19.630Z,1.29
2019-01-30T04:01:49.180Z,1.28
2019-01-30T04:04:18.803Z,1.22
2019-01-30T04:06:48.504Z,1.31
2019-01-30T04:09:18.198Z,1.37
2019-01-30T04:11:49.296Z,1.51
2019-01-30T04:14:18.893Z,1.51
2019-01-30T04:16:49.768Z,1.48
2019-01-30T04:19:19.497Z,1.31
2019-01-30T04:21:49.029Z,1.37
2019-01-30T04:24:18.613Z,1.22
2019-01-30T04:26:48.134Z,1.46
2019-01-30T04:29:17.714Z,1.58
2019-01-30T04:31:47.193Z,1.34
2019-01-30T04:34:18.740Z,1.39
2019-01-30T04:36:48.239Z,1.37
2019-01-30T04:39:18.195Z,1.54
2019-01-30T04:41:47.794Z,1.66
2019-01-30T04:44:17.371Z,1.71
2019-01-30T04:46:46.875Z,1.55
2019-01-30T04:49:16.481Z,1.59
2019-01-30T04:51:45.994Z,1.31
2019-01-30T04:54:15.612Z,1.52
2019-01-30T04:56:45.409Z,1.42
2019-01-30T04:59:14.979Z,1.72
2019-01-30T05:01:49.668Z,1.54
2019-01-30T05:04:15.835Z,1.73
2019-01-30T05:06:45.331Z,1.50
2019-01-30T05:09:14.834Z,1.53
2019-01-30T05:11:44.513Z,1.58
2019-01-30T05:14:14.117Z,1.70
2019-01-30T05:16:43.799Z,1.84
2019-01-30T05:19:14.129Z,1.83
2019-01-30T05:21:43.627Z,1.58
2019-01-30T05:24:13.134Z,1.66
2019-01-30T05:26:42.747Z,1.45
2019-01-30T05:29:12.249Z,1.17
2019-01-30T05:31:41.820Z,1.50
2019-01-30T05:34:11.367Z,1.54
2019-01-30T05:36:40.925Z,1.31
2019-01-30T05:39:10.605Z,1.24
2019-01-30T05:41:40.736Z,1.26
2019-01-30T05:44:10.292Z,1.39
2019-01-30T05:46:39.862Z,1.36
2019-01-30T05:49:09.407Z,1.38
2019-01-30T05:51:38.997Z,1.20
2019-01-30T05:54:08.561Z,1.32
2019-01-30T05:56:38.094Z,1.32
2019-01-30T05:59:07.769Z,1.51
2019-01-30T06:01:39.898Z,1.14
2019-01-30T06:04:09.878Z,1.29
2019-01-30T06:06:39.455Z,1.18
2019-01-30T06:09:09.095Z,1.38
2019-01-30T06:11:38.633Z,1.36
2019-01-30T06:14:08.220Z,1.37
2019-01-30T06:16:37.719Z,1.18
2019-01-30T06:19:07.393Z,1.32
2019-01-30T06:21:36.972Z,1.12
2019-01-30T06:24:06.554Z,0.90
2019-01-30T06:26:36.615Z,0.81
2019-01-30T06:29:06.197Z,1.02
2019-01-30T06:31:35.831Z,0.95
2019-01-30T06:34:05.521Z,1.11
2019-01-30T06:36:35.023Z,0.95
2019-01-30T06:39:06.985Z,1.17
2019-01-30T06:41:36.516Z,1.25
2019-01-30T06:44:06.167Z,1.39
2019-01-30T06:46:35.924Z,1.37
2019-01-30T06:49:05.593Z,1.26
2019-01-30T06:51:35.163Z,1.31
2019-01-30T06:54:04.758Z,1.33
2019-01-30T06:56:34.359Z,1.33
2019-01-30T06:59:04.242Z,1.27
2019-01-30T07:01:34.203Z,1.23
2019-01-30T07:04:03.724Z,1.40
2019-01-30T07:06:33.239Z,1.36
2019-01-30T07:09:02.741Z,1.49
2019-01-30T07:11:32.345Z,1.40
2019-01-30T07:14:01.890Z,1.43
2019-01-30T07:16:31.417Z,1.63
2019-01-30T07:19:00.975Z,1.72
2019-01-30T07:21:30.545Z,1.46
2019-01-30T07:24:00.316Z,1.32
2019-01-30T07:26:29.919Z,1.58
2019-01-30T07:28:59.438Z,1.69
2019-01-30T07:31:29.024Z,1.56
2019-01-30T07:33:58.650Z,1.62
2019-01-30T07:36:28.239Z,1.75
2019-01-30T07:38:57.799Z,1.52
2019-01-30T07:41:27.345Z,1.44
2019-01-30T07:43:56.829Z,1.77
2019-01-30T07:46:26.343Z,1.73
2019-01-30T07:48:55.888Z,1.69
2019-01-30T07:51:25.398Z,1.68
2019-01-30T07:53:55.016Z,1.92
2019-01-30T07:56:24.664Z,1.88
2019-01-30T07:58:54.244Z,1.92
2019-01-30T08:01:23.762Z,2.08
2019-01-30T08:03:53.357Z,2.05
2019-01-30T08:06:23.002Z,2.08
2019-01-30T08:08:52.558Z,1.83
2019-01-30T08:11:22.160Z,2.15
2019-01-30T08:13:51.744Z,2.17
2019-01-30T08:16:21.833Z,2.33
2019-01-30T08:18:51.958Z,2.59
2019-01-30T08:21:21.468Z,2.57
2019-01-30T08:23:51.046Z,2.79
2019-01-30T08:26:21.067Z,2.82
2019-01-30T08:28:50.899Z,2.93
2019-01-30T08:31:20.586Z,2.91
2019-01-30T08:33:50.344Z,2.94
2019-01-30T08:36:19.853Z,3.19
2019-01-30T08:38:49.566Z,3.06
2019-01-30T08:41:19.226Z,3.16
2019-01-30T08:43:48.732Z,2.93
2019-01-30T08:46:18.374Z,3.22
2019-01-30T08:48:47.924Z,3.51
2019-01-30T08:51:17.442Z,3.62
2019-01-30T08:53:46.981Z,3.30
2019-01-30T08:56:16.586Z,3.20
2019-01-30T08:58:46.174Z,3.14
2019-01-30T09:01:15.903Z,3.14
2019-01-30T09:03:45.569Z,3.04
2019-01-30T09:06:15.084Z,3.27
2019-01-30T09:08:44.658Z,3.13
2019-01-30T09:11:14.250Z,3.26
2019-01-30T09:13:43.755Z,3.26
2019-01-30T09:16:13.383Z,3.88
2019-01-30T09:18:43.072Z,3.70
2019-01-30T09:21:12.578Z,3.40
2019-01-30T09:23:42.516Z,3.87
2019-01-30T09:26:15.113Z,3.46
2019-01-30T09:28:44.686Z,3.62
2019-01-30T09:31:14.190Z,3.72
2019-01-30T09:33:43.749Z,4.21
2019-01-30T09:36:13.398Z,4.38
2019-01-30T09:38:43.016Z,4.66
2019-01-30T09:41:12.627Z,4.72
2019-01-30T09:43:42.215Z,4.85
2019-01-30T09:46:11.854Z,4.51
2019-01-30T09:48:41.609Z,4.37
2019-01-30T09:51:11.178Z,4.74
2019-01-30T09:53:40.739Z,4.60
2019-01-30T09:56:10.341Z,4.60
2019-01-30T09:58:39.836Z,3.89
2019-01-30T10:01:09.358Z,4.21
2019-01-30T10:03:38.913Z,4.55
2019-01-30T10:06:09.533Z,4.49
2019-01-30T10:08:39.031Z,4.71
2019-01-30T10:11:09.057Z,5.27
2019-01-30T10:13:38.556Z,4.82
2019-01-30T10:16:08.201Z,4.67
2019-01-30T10:18:37.788Z,4.95
2019-01-30T10:21:07.344Z,5.23
2019-01-30T10:23:36.913Z,5.35
2019-01-30T10:26:06.578Z,5.50
2019-01-30T10:28:36.100Z,5.68
2019-01-30T10:31:05.774Z,5.61
2019-01-30T10:33:45.694Z,5.97
2019-01-30T10:36:07.194Z,5.73
2019-01-30T10:38:36.914Z,5.56
2019-01-30T10:41:06.544Z,6.12
2019-01-30T10:43:36.122Z,6.00
2019-01-30T10:46:06.114Z,6.21
2019-01-30T10:48:36.511Z,6.36
2019-01-30T10:51:07.434Z,5.93
2019-01-30T10:53:37.522Z,6.23
2019-01-30T10:56:07.198Z,6.03
2019-01-30T10:58:36.863Z,5.06
2019-01-30T11:01:07.015Z,5.18
2019-01-30T11:03:36.726Z,5.23
2019-01-30T11:06:07.049Z,5.54
2019-01-30T11:08:36.633Z,5.73
2019-01-30T11:11:25.723Z,5.54
2019-01-30T11:13:55.400Z,4.71
2019-01-30T11:16:24.906Z,4.65
2019-01-30T11:18:54.511Z,4.88
2019-01-30T11:21:24.023Z,5.11
2019-01-30T11:23:53.602Z,4.38
2019-01-30T11:26:23.197Z,4.17
2019-01-30T11:28:53.801Z,4.31
2019-01-30T11:31:23.832Z,4.59
2019-01-30T11:33:54.351Z,4.67
2019-01-30T11:36:23.903Z,4.84
2019-01-30T11:38:53.500Z,5.04
2019-01-30T11:41:23.125Z,4.72
2019-01-30T11:43:52.730Z,4.89
2019-01-30T11:46:22.298Z,4.76
2019-01-30T11:48:56.339Z,4.81
2019-01-30T11:51:23.151Z,5.29
2019-01-30T11:53:52.825Z,4.98
2019-01-30T11:56:22.572Z,4.67
2019-01-30T11:58:52.073Z,4.70
2019-01-30T12:01:21.714Z,4.53
2019-01-30T12:03:51.229Z,4.79
2019-01-30T12:06:20.746Z,5.32
2019-01-30T12:08:50.230Z,5.26
2019-01-30T12:11:19.961Z,4.92
2019-01-30T12:13:49.513Z,4.93
2019-01-30T12:16:19.165Z,5.36
2019-01-30T12:18:48.939Z,5.66
2019-01-30T12:21:18.579Z,5.55
2019-01-30T12:23:48.154Z,5.18
2019-01-30T12:26:17.677Z,5.05
2019-01-30T12:28:47.163Z,5.69
2019-01-30T12:31:16.663Z,5.67
2019-01-30T12:33:46.505Z,5.42
2019-01-30T12:36:16.111Z,5.56
2019-01-30T12:38:45.640Z,6.67
2019-01-30T12:41:15.486Z,7.35
2019-01-30T12:43:45.408Z,8.14
2019-01-30T12:46:15.211Z,9.05
2019-01-30T12:48:44.752Z,9.69
2019-01-30T12:51:14.405Z,11.44
2019-01-30T12:53:43.909Z,13.58
2019-01-30T12:56:13.514Z,14.68
2019-01-30T12:58:43.022Z,14.28
2019-01-30T13:01:12.529Z,13.75
2019-01-30T13:03:42.437Z,12.68
2019-01-30T13:06:11.949Z,13.17
2019-01-30T13:08:41.550Z,13.13
2019-01-30T13:11:11.296Z,11.92
2019-01-30T13:13:40.835Z,12.10
2019-01-30T13:16:10.334Z,11.88
2019-01-30T13:18:40.097Z,10.93
2019-01-30T13:21:09.587Z,12.03
2019-01-30T13:23:39.095Z,12.98
2019-01-30T13:26:08.885Z,12.37
2019-01-30T13:28:38.398Z,12.39
2019-01-30T13:31:08.044Z,12.96
2019-01-30T13:33:38.797Z,12.24
2019-01-30T13:36:08.846Z,13.02
2019-01-30T13:38:38.431Z,11.53
2019-01-30T13:41:07.995Z,11.57
2019-01-30T13:43:37.498Z,11.36
2019-01-30T13:46:07.751Z,12.04
2019-01-30T13:48:39.665Z,11.52
2019-01-30T13:51:11.183Z,11.35
2019-01-30T13:53:40.623Z,10.65
2019-01-30T13:56:10.229Z,9.87
2019-01-30T13:58:39.819Z,10.28
2019-01-30T14:01:17.380Z,10.71
2019-01-30T14:03:40.969Z,10.26
2019-01-30T14:06:10.604Z,10.51
2019-01-30T14:08:40.187Z,9.54
2019-01-30T14:11:09.835Z,9.38
2019-01-30T14:13:39.441Z,9.20
2019-01-30T14:16:09.061Z,8.72
2019-01-30T14:18:38.755Z,8.55
2019-01-30T14:21:08.384Z,8.57
2019-01-30T14:23:37.853Z,8.86
2019-01-30T14:26:27.856Z,7.64
2019-01-30T14:28:57.496Z,7.26
2019-01-30T14:31:27.140Z,6.83
2019-01-30T14:33:57.366Z,6.32
2019-01-30T14:36:27.373Z,6.19
2019-01-30T14:38:56.998Z,6.04
2019-01-30T14:41:26.747Z,5.83
2019-01-30T14:43:56.266Z,5.57
2019-01-30T14:46:25.995Z,5.73
2019-01-30T14:49:15.148Z,5.72
2019-01-30T14:51:44.644Z,5.69
2019-01-30T14:54:14.269Z,5.68
2019-01-30T14:56:44.009Z,5.54
2019-01-30T14:59:13.524Z,5.46
2019-01-30T15:01:43.174Z,5.45
2019-01-30T15:04:12.853Z,5.25
2019-01-30T15:06:42.359Z,5.19
2019-01-30T15:09:12.053Z,5.13
2019-01-30T15:11:41.841Z,4.87
2019-01-30T15:14:11.437Z,5.01
2019-01-30T15:16:41.039Z,4.89
2019-01-30T15:19:10.751Z,4.71
2019-01-30T15:21:40.303Z,4.72
2019-01-30T15:24:09.925Z,4.41
2019-01-30T15:26:39.466Z,4.69
2019-01-30T15:29:09.044Z,4.68
2019-01-30T15:31:38.557Z,4.68
2019-01-30T15:34:08.490Z,4.60
2019-01-30T15:36:38.049Z,4.50
2019-01-30T15:39:09.723Z,4.41
2019-01-30T15:41:39.272Z,4.25
2019-01-30T15:44:08.946Z,4.06
2019-01-30T15:46:38.494Z,4.27
2019-01-30T15:49:08.158Z,4.23
2019-01-30T15:51:37.808Z,4.35
2019-01-30T15:54:07.746Z,4.16
2019-01-30T15:56:37.356Z,4.15
2019-01-30T15:59:08.285Z,4.15
2019-01-30T16:01:38.014Z,4.06
2019-01-30T16:04:07.620Z,4.06
2019-01-30T16:06:37.970Z,4.14
2019-01-30T16:09:08.633Z,4.03
2019-01-30T16:11:39.676Z,3.78
2019-01-30T16:14:09.723Z,3.97
2019-01-30T16:16:39.310Z,4.17
2019-01-30T16:19:08.913Z,4.12
2019-01-30T16:21:38.543Z,3.87
2019-01-30T16:24:08.156Z,4.07
2019-01-30T16:26:37.686Z,3.77
2019-01-30T16:29:07.274Z,3.96
2019-01-30T16:31:37.348Z,4.08
2019-01-30T16:34:07.294Z,4.08
2019-01-30T16:36:36.799Z,3.62
2019-01-30T16:39:08.910Z,3.96
2019-01-30T16:41:38.451Z,3.73
2019-01-30T16:44:09.394Z,3.74
2019-01-30T16:46:38.971Z,3.91
2019-01-30T16:49:08.555Z,3.80
2019-01-30T16:51:38.133Z,3.69
2019-01-30T16:54:07.778Z,3.72
2019-01-30T16:56:37.312Z,3.48
2019-01-30T16:59:07.053Z,3.73
2019-01-30T17:01:36.553Z,3.72
2019-01-30T17:04:06.635Z,3.72
2019-01-30T17:06:36.116Z,3.69
2019-01-30T17:09:07.951Z,3.76
2019-01-30T17:11:37.588Z,3.61
2019-01-30T17:14:07.326Z,3.51
2019-01-30T17:16:36.832Z,3.49
2019-01-30T17:19:06.579Z,3.70
2019-01-30T17:21:36.094Z,3.70
2019-01-30T17:24:05.828Z,3.66
2019-01-30T17:26:35.497Z,3.51
2019-01-30T17:29:05.090Z,3.75
2019-01-30T17:31:34.785Z,3.43
2019-01-30T17:34:04.561Z,3.69
2019-01-30T17:36:34.230Z,3.53
2019-01-30T17:39:05.859Z,3.58
2019-01-30T17:41:35.360Z,3.55
2019-01-30T17:44:05.007Z,3.83
2019-01-30T17:46:34.512Z,3.53
2019-01-30T17:49:04.609Z,3.76
2019-01-30T17:51:34.243Z,3.44
2019-01-30T17:54:03.762Z,3.52
2019-01-30T17:56:33.337Z,3.41
2019-01-30T17:59:02.915Z,3.27
2019-01-30T18:01:32.553Z,3.28
2019-01-30T18:04:02.160Z,3.28
2019-01-30T18:06:31.667Z,3.33
2019-01-30T18:09:01.330Z,3.32
2019-01-30T18:11:30.859Z,3.32
2019-01-30T18:14:20.249Z,3.22
2019-01-30T18:16:50.238Z,3.12
2019-01-30T18:19:19.763Z,3.09
2019-01-30T18:21:49.287Z,2.84
2019-01-30T18:24:18.782Z,3.10
2019-01-30T18:26:48.285Z,2.99
2019-01-30T18:29:17.809Z,3.17
2019-01-30T18:31:47.330Z,2.88
2019-01-30T18:34:16.868Z,3.18
2019-01-30T18:36:46.391Z,3.38
2019-01-30T18:39:16.050Z,3.50
2019-01-30T18:41:45.631Z,3.29
2019-01-30T18:44:15.131Z,3.12
2019-01-30T18:46:44.811Z,3.27
2019-01-30T18:49:14.309Z,3.42
2019-01-30T18:51:43.949Z,3.41
2019-01-30T18:54:13.648Z,3.44
2019-01-30T18:56:43.253Z,3.49
2019-01-30T18:59:12.851Z,3.45
2019-01-30T19:01:42.511Z,3.26
2019-01-30T19:04:12.022Z,3.27
2019-01-30T19:06:51.712Z,3.38
2019-01-30T19:09:13.054Z,3.55
2019-01-30T19:11:42.646Z,3.63
2019-01-30T19:14:12.228Z,3.34
2019-01-30T19:16:41.761Z,3.40
2019-01-30T19:19:11.400Z,3.47
2019-01-30T19:21:40.904Z,3.54
2019-01-30T19:24:10.551Z,3.68
2019-01-30T19:26:40.070Z,3.56
2019-01-30T19:29:09.702Z,3.74
2019-01-30T19:31:43.193Z,3.86
2019-01-30T19:34:12.779Z,3.69
2019-01-30T19:36:44.013Z,3.60
2019-01-30T19:39:14.402Z,3.68
2019-01-30T19:41:44.034Z,3.13
2019-01-30T19:44:16.345Z,3.13
2019-01-30T19:46:45.863Z,3.54
2019-01-30T19:49:15.441Z,3.38
2019-01-30T19:51:45.080Z,3.11
2019-01-30T19:54:14.630Z,3.24
2019-01-30T19:56:44.209Z,3.20
2019-01-30T19:59:17.734Z,3.22
2019-01-30T20:01:45.511Z,3.19
2019-01-30T20:04:15.153Z,3.17
2019-01-30T20:06:44.738Z,3.28
2019-01-30T20:09:16.570Z,3.32
2019-01-30T20:11:46.604Z,3.48
2019-01-30T20:14:16.114Z,3.31
2019-01-30T20:16:47.911Z,3.17
2019-01-30T20:19:17.492Z,3.29
2019-01-30T20:21:47.092Z,3.30
2019-01-30T20:24:16.640Z,3.28
2019-01-30T20:26:46.217Z,3.07
2019-01-30T20:29:15.729Z,3.20
2019-01-30T20:31:45.444Z,3.48
2019-01-30T20:34:15.415Z,3.34
2019-01-30T20:36:45.104Z,3.19
2019-01-30T20:39:14.968Z,3.44
2019-01-30T20:41:44.617Z,3.61
2019-01-30T20:44:14.116Z,3.35
2019-01-30T20:46:43.738Z,3.20
2019-01-30T20:49:13.280Z,3.14
2019-01-30T20:51:42.778Z,3.18
2019-01-30T20:54:12.547Z,3.27
2019-01-30T20:56:42.128Z,3.26
2019-01-30T20:59:11.628Z,3.50
2019-01-30T21:01:41.551Z,3.50
2019-01-30T21:04:11.152Z,3.47
2019-01-30T21:06:40.677Z,3.63
2019-01-30T21:09:10.672Z,3.71
2019-01-30T21:11:40.170Z,3.53
2019-01-30T21:14:09.758Z,3.32
2019-01-30T21:16:39.801Z,3.35
2019-01-30T21:19:09.503Z,3.37
2019-01-30T21:21:39.089Z,3.26
2019-01-30T21:24:08.955Z,3.26
2019-01-30T21:26:38.678Z,3.16
2019-01-30T21:29:08.292Z,3.22
2019-01-30T21:31:37.836Z,3.12
2019-01-30T21:34:07.462Z,3.35
2019-01-30T21:36:37.307Z,3.46
2019-01-30T21:39:09.895Z,3.61
2019-01-30T21:41:39.416Z,3.45
2019-01-30T21:44:09.133Z,3.13
2019-01-30T21:46:38.844Z,3.08
2019-01-30T21:49:08.354Z,3.17
2019-01-30T21:51:37.907Z,3.13
2019-01-30T21:54:07.600Z,3.42
2019-01-30T21:56:37.198Z,3.37
2019-01-30T21:59:06.844Z,3.52
2019-01-30T22:01:36.587Z,3.49
2019-01-30T22:04:06.228Z,3.46
2019-01-30T22:06:35.807Z,3.64
2019-01-30T22:09:07.568Z,3.46
2019-01-30T22:11:37.200Z,3.70
2019-01-30T22:14:06.918Z,3.60
2019-01-30T22:16:36.624Z,3.47
2019-01-30T22:19:06.397Z,3.66
2019-01-30T22:21:36.434Z,3.48
2019-01-30T22:24:06.868Z,3.54
2019-01-30T22:26:36.424Z,3.67
2019-01-30T22:29:06.407Z,3.71
2019-01-30T22:31:35.943Z,3.96
2019-01-30T22:34:05.589Z,3.70
2019-01-30T22:36:35.097Z,3.64
2019-01-30T22:39:07.128Z,3.69
2019-01-30T22:41:36.830Z,3.47
2019-01-30T22:44:06.416Z,3.53
2019-01-30T22:46:36.017Z,3.77
2019-01-30T22:49:05.860Z,3.61
2019-01-30T22:51:35.377Z,3.77
2019-01-30T22:54:05.854Z,3.78
2019-01-30T22:56:35.395Z,3.52
2019-01-30T22:59:05.055Z,3.30
2019-01-30T23:01:42.600Z,3.33
2019-01-30T23:04:28.703Z,3.53
2019-01-30T23:42:47.322Z,3.52
2019-01-30T23:45:31.408Z,3.32
2019-01-30T23:48:37.086Z,3.42
2019-01-30T23:51:26.120Z,3.42
2019-01-30T23:54:29.130Z,3.43
2019-01-30T23:57:30.220Z,3.64
